createdAt,value
2017-07-18T00:00:40.285Z,0
2017-07-18T00:01:40.300Z,0
2017-07-18T00:02:39.977Z,0
2017-07-18T00:03:40.058Z,0
2017-07-18T00:04:40.391Z,0
2017-07-18T00:05:40.424Z,0
2017-07-18T00:06:40.836Z,0
2017-07-18T00:07:40.416Z,0
2017-07-18T00:08:40.529Z,0
2017-07-18T00:09:40.231Z,0
2017-07-18T00:10:40.901Z,0
2017-07-18T00:11:40.908Z,0
2017-07-18T00:12:41.205Z,0
2017-07-18T00:13:40.970Z,0
2017-07-18T00:14:40.383Z,0
2017-07-18T00:15:40.419Z,0
2017-07-18T00:16:41.065Z,0
2017-07-18T00:17:40.790Z,0
2017-07-18T00:18:41.131Z,0
2017-07-18T00:19:40.843Z,0
2017-07-18T00:20:40.870Z,0
2017-07-18T00:21:41.203Z,0
2017-07-18T00:22:40.946Z,0
2017-07-18T00:23:41.214Z,0
2017-07-18T00:24:40.996Z,0
2017-07-18T00:25:41.015Z,0
2017-07-18T00:26:41.361Z,0
2017-07-18T00:27:40.455Z,0
2017-07-18T00:28:41.680Z,0
2017-07-18T00:29:41.460Z,0
2017-07-18T00:30:41.196Z,0
2017-07-18T00:31:41.203Z,0
2017-07-18T00:32:41.236Z,0
2017-07-18T00:33:41.514Z,0
2017-07-18T00:34:41.325Z,0
2017-07-18T00:35:41.011Z,0
2017-07-18T00:36:41.686Z,0
2017-07-18T00:37:41.386Z,0
2017-07-18T00:38:41.675Z,0
2017-07-18T00:39:41.441Z,0
2017-07-18T00:40:41.782Z,0
2017-07-18T00:41:40.893Z,0
2017-07-18T00:42:41.223Z,0
2017-07-18T00:43:41.856Z,0
2017-07-18T00:44:41.597Z,0
2017-07-18T00:45:40.993Z,0
2017-07-18T00:46:41.393Z,0
2017-07-18T00:47:41.379Z,0
2017-07-18T00:48:41.659Z,0
2017-07-18T00:49:41.733Z,0
2017-07-18T00:50:42.085Z,0
2017-07-18T00:51:41.486Z,0
2017-07-18T00:52:41.207Z,0
2017-07-18T00:53:42.484Z,0
2017-07-18T00:54:42.214Z,0
2017-07-18T00:55:41.921Z,0
2017-07-18T00:56:41.646Z,0
2017-07-18T00:57:41.976Z,0
2017-07-18T00:58:41.959Z,0
2017-07-18T00:59:41.728Z,0
2017-07-18T01:00:42.406Z,0
2017-07-18T01:01:41.789Z,0
2017-07-18T01:02:41.519Z,0
2017-07-18T01:03:42.464Z,0
2017-07-18T01:04:41.880Z,0
2017-07-18T01:05:42.210Z,0
2017-07-18T01:06:41.623Z,0
2017-07-18T01:07:41.649Z,0
2017-07-18T01:08:42.880Z,0
2017-07-18T01:09:42.041Z,0
2017-07-18T01:10:41.746Z,0
2017-07-18T01:11:42.395Z,0
2017-07-18T01:12:42.745Z,0
2017-07-18T01:13:43.079Z,0
2017-07-18T01:14:41.882Z,0
2017-07-18T01:15:42.510Z,0
2017-07-18T01:16:41.933Z,0
2017-07-18T01:17:42.896Z,0
2017-07-18T01:18:43.163Z,0
2017-07-18T01:19:42.657Z,0
2017-07-18T01:20:42.678Z,0
2017-07-18T01:21:42.375Z,0
2017-07-18T01:22:43.044Z,0
2017-07-18T01:23:42.988Z,0
2017-07-18T01:24:42.467Z,0
2017-07-18T01:25:42.496Z,0
2017-07-18T01:26:42.537Z,0
2017-07-18T01:27:42.868Z,0
2017-07-18T01:28:43.205Z,0
2017-07-18T01:29:42.943Z,0
2017-07-18T01:30:43.286Z,0
2017-07-18T01:31:42.687Z,0
2017-07-18T01:32:43.037Z,0
2017-07-18T01:33:42.989Z,0
2017-07-18T01:34:43.098Z,0
2017-07-18T01:35:43.114Z,0
2017-07-18T01:36:42.831Z,0
2017-07-18T01:37:43.165Z,0
2017-07-18T01:38:43.505Z,0
2017-07-18T01:39:42.914Z,0
2017-07-18T01:40:42.963Z,0
2017-07-18T01:41:42.984Z,0
2017-07-18T01:42:42.694Z,0
2017-07-18T01:43:43.911Z,0
2017-07-18T01:44:42.755Z,0
2017-07-18T01:45:42.779Z,0
2017-07-18T01:46:43.447Z,0
2017-07-18T01:47:43.785Z,0
2017-07-18T01:48:43.805Z,0
2017-07-18T01:49:42.906Z,0
2017-07-18T01:50:43.579Z,0
2017-07-18T01:51:42.960Z,0
2017-07-18T01:52:43.329Z,0
2017-07-18T01:53:43.636Z,0
2017-07-18T01:54:43.375Z,0
2017-07-18T01:55:43.710Z,0
2017-07-18T01:56:44.057Z,0
2017-07-18T01:57:43.133Z,0
2017-07-18T01:58:43.796Z,0
2017-07-18T01:59:44.135Z,0
2017-07-18T02:00:44.180Z,0
2017-07-18T02:01:43.569Z,0
2017-07-18T02:02:43.919Z,0
2017-07-18T02:03:44.497Z,0
2017-07-18T02:04:44.287Z,0
2017-07-18T02:05:43.384Z,0
2017-07-18T02:06:43.730Z,0
2017-07-18T02:07:43.437Z,0
2017-07-18T02:08:43.785Z,0
2017-07-18T02:09:44.146Z,0
2017-07-18T02:10:44.468Z,0
2017-07-18T02:11:43.871Z,0
2017-07-18T02:12:43.935Z,0
2017-07-18T02:13:44.173Z,0
2017-07-18T02:14:43.670Z,0
2017-07-18T02:15:43.991Z,0
2017-07-18T02:16:44.020Z,0
2017-07-18T02:17:44.662Z,0
2017-07-18T02:18:44.687Z,0
2017-07-18T02:19:44.415Z,0
2017-07-18T02:20:44.155Z,0
2017-07-18T02:21:44.176Z,0
2017-07-18T02:22:44.206Z,0
2017-07-18T02:23:44.790Z,0
2017-07-18T02:24:44.872Z,0
2017-07-18T02:25:43.992Z,0
2017-07-18T02:26:44.652Z,0
2017-07-18T02:27:44.030Z,0
2017-07-18T02:28:44.690Z,0
2017-07-18T02:29:44.084Z,0
2017-07-18T02:30:44.164Z,0
2017-07-18T02:31:44.181Z,0
2017-07-18T02:32:45.147Z,0
2017-07-18T02:33:45.083Z,0
2017-07-18T02:34:44.568Z,0
2017-07-18T02:35:45.200Z,0
2017-07-18T02:36:44.938Z,0
2017-07-18T02:37:45.278Z,0
2017-07-18T02:38:44.940Z,0
2017-07-18T02:39:44.689Z,0
2017-07-18T02:40:45.057Z,0
2017-07-18T02:41:44.454Z,0
2017-07-18T02:42:44.836Z,0
2017-07-18T02:43:45.074Z,0
2017-07-18T02:44:44.886Z,0
2017-07-18T02:45:45.496Z,0
2017-07-18T02:46:45.231Z,0
2017-07-18T02:47:44.932Z,0
2017-07-18T02:48:45.544Z,0
2017-07-18T02:49:44.996Z,0
2017-07-18T02:50:45.353Z,0
2017-07-18T02:51:45.365Z,0
2017-07-18T02:52:45.415Z,0
2017-07-18T02:53:45.127Z,0
2017-07-18T02:54:45.087Z,0
2017-07-18T02:55:45.485Z,0
2017-07-18T02:56:45.205Z,0
2017-07-18T02:57:45.539Z,0
2017-07-18T02:58:44.959Z,0
2017-07-18T02:59:45.844Z,0
2017-07-18T03:00:45.322Z,0
2017-07-18T03:01:45.036Z,0
2017-07-18T03:02:45.379Z,0
2017-07-18T03:03:45.395Z,0
2017-07-18T03:04:46.380Z,0
2017-07-18T03:05:45.772Z,0
2017-07-18T03:06:45.222Z,0
2017-07-18T03:07:45.526Z,0
2017-07-18T03:08:45.578Z,0
2017-07-18T03:09:46.159Z,0
2017-07-18T03:10:45.939Z,0
2017-07-18T03:11:46.270Z,0
2017-07-18T03:12:45.060Z,0
2017-07-18T03:13:45.710Z,0
2017-07-18T03:14:46.356Z,0
2017-07-18T03:15:46.090Z,0
2017-07-18T03:16:46.125Z,0
2017-07-18T03:17:45.818Z,0
2017-07-18T03:18:46.496Z,0
2017-07-18T03:19:46.182Z,0
2017-07-18T03:20:46.552Z,0
2017-07-18T03:21:46.258Z,0
2017-07-18T03:22:46.287Z,0
2017-07-18T03:23:46.312Z,0
2017-07-18T03:24:45.663Z,0
2017-07-18T03:25:46.061Z,0
2017-07-18T03:26:46.403Z,0
2017-07-18T03:27:46.740Z,0
2017-07-18T03:28:46.474Z,0
2017-07-18T03:29:46.736Z,0
2017-07-18T03:30:46.526Z,0
2017-07-18T03:31:46.865Z,0
2017-07-18T03:32:46.270Z,0
2017-07-18T03:33:45.984Z,0
2017-07-18T03:34:46.644Z,0
2017-07-18T03:35:46.069Z,0
2017-07-18T03:36:46.405Z,0
2017-07-18T03:37:46.109Z,0
2017-07-18T03:38:46.778Z,0
2017-07-18T03:39:46.731Z,0
2017-07-18T03:40:46.823Z,0
2017-07-18T03:41:46.830Z,0
2017-07-18T03:42:47.178Z,0
2017-07-18T03:43:47.204Z,0
2017-07-18T03:44:46.574Z,0
2017-07-18T03:45:47.273Z,0
2017-07-18T03:46:46.995Z,0
2017-07-18T03:47:47.006Z,0
2017-07-18T03:48:46.764Z,0
2017-07-18T03:49:47.056Z,0
2017-07-18T03:50:47.422Z,0
2017-07-18T03:51:46.514Z,0
2017-07-18T03:52:46.859Z,0
2017-07-18T03:53:47.504Z,0
2017-07-18T03:54:47.176Z,0
2017-07-18T03:55:46.940Z,0
2017-07-18T03:56:46.983Z,0
2017-07-18T03:57:46.991Z,0
2017-07-18T03:58:46.407Z,0
2017-07-18T03:59:47.977Z,0
2017-07-18T04:00:47.091Z,0
2017-07-18T04:01:47.426Z,0
2017-07-18T04:02:47.195Z,0
2017-07-18T04:03:47.172Z,0
2017-07-18T04:04:47.770Z,0
2017-07-18T04:05:47.253Z,0
2017-07-18T04:06:47.583Z,0
2017-07-18T04:07:47.608Z,0
2017-07-18T04:08:47.668Z,0
2017-07-18T04:09:47.598Z,0
2017-07-18T04:10:48.006Z,0
2017-07-18T04:11:47.414Z,0
2017-07-18T04:12:47.781Z,0
2017-07-18T04:13:47.780Z,0
2017-07-18T04:14:48.389Z,0
2017-07-18T04:15:47.833Z,0
2017-07-18T04:16:47.894Z,0
2017-07-18T04:17:47.579Z,0
2017-07-18T04:18:47.636Z,0
2017-07-18T04:19:47.014Z,0
2017-07-18T04:20:48.254Z,0
2017-07-18T04:21:47.715Z,0
2017-07-18T04:22:47.428Z,0
2017-07-18T04:23:48.072Z,0
2017-07-18T04:24:48.113Z,0
2017-07-18T04:25:48.378Z,0
2017-07-18T04:26:48.191Z,0
2017-07-18T04:27:48.505Z,0
2017-07-18T04:28:48.229Z,0
2017-07-18T04:29:48.246Z,0
2017-07-18T04:30:47.669Z,0
2017-07-18T04:31:48.307Z,0
2017-07-18T04:32:48.346Z,0
2017-07-18T04:33:48.366Z,0
2017-07-18T04:34:47.781Z,0
2017-07-18T04:35:48.677Z,0
2017-07-18T04:36:48.463Z,0
2017-07-18T04:37:47.863Z,0
2017-07-18T04:38:48.205Z,0
2017-07-18T04:39:48.241Z,0
2017-07-18T04:40:49.131Z,0
2017-07-18T04:41:48.287Z,0
2017-07-18T04:42:48.955Z,0
2017-07-18T04:43:48.677Z,0
2017-07-18T04:44:48.739Z,0
2017-07-18T04:45:48.974Z,0
2017-07-18T04:46:49.062Z,0
2017-07-18T04:47:48.782Z,0
2017-07-18T04:48:48.827Z,0
2017-07-18T04:49:48.830Z,0
2017-07-18T04:50:48.547Z,0
2017-07-18T04:51:48.274Z,0
2017-07-18T04:52:48.617Z,0
2017-07-18T04:53:48.957Z,0
2017-07-18T04:54:48.990Z,0
2017-07-18T04:55:48.954Z,0
2017-07-18T04:56:49.044Z,0
2017-07-18T04:57:48.443Z,0
2017-07-18T04:58:49.425Z,0
2017-07-18T04:59:48.497Z,0
2017-07-18T05:00:49.478Z,0
2017-07-18T05:01:49.503Z,0
2017-07-18T05:02:49.268Z,0
2017-07-18T05:03:48.932Z,0
2017-07-18T05:04:49.273Z,0
2017-07-18T05:05:49.283Z,0
2017-07-18T05:06:49.655Z,0
2017-07-18T05:07:48.423Z,5
2017-07-18T05:08:49.081Z,5
2017-07-18T05:09:49.410Z,5
2017-07-18T05:10:49.392Z,5
2017-07-18T05:11:49.160Z,5
2017-07-18T05:12:49.525Z,5
2017-07-18T05:13:49.220Z,5
2017-07-18T05:14:49.262Z,5
2017-07-18T05:15:49.878Z,5
2017-07-18T05:16:49.692Z,5
2017-07-18T05:17:49.652Z,5
2017-07-18T05:18:50.006Z,5
2017-07-18T05:19:50.026Z,5
2017-07-18T05:20:49.702Z,5
2017-07-18T05:21:49.461Z,5
2017-07-18T05:22:49.813Z,5
2017-07-18T05:23:49.825Z,5
2017-07-18T05:24:49.254Z,5
2017-07-18T05:25:50.147Z,5
2017-07-18T05:26:49.302Z,5
2017-07-18T05:27:49.944Z,5
2017-07-18T05:28:50.003Z,5
2017-07-18T05:29:49.382Z,5
2017-07-18T05:30:49.991Z,5
2017-07-18T05:31:49.464Z,5
2017-07-18T05:32:49.472Z,5
2017-07-18T05:33:49.820Z,5
2017-07-18T05:34:49.516Z,5
2017-07-18T05:35:49.848Z,5
2017-07-18T05:36:50.519Z,5
2017-07-18T05:37:49.616Z,5
2017-07-18T05:38:50.278Z,5
2017-07-18T05:39:49.981Z,5
2017-07-18T05:40:49.959Z,5
2017-07-18T05:41:50.048Z,5
2017-07-18T05:42:49.773Z,5
2017-07-18T05:43:50.409Z,5
2017-07-18T05:44:50.457Z,5
2017-07-18T05:45:50.411Z,5
2017-07-18T05:46:50.516Z,5
2017-07-18T05:47:49.909Z,5
2017-07-18T05:48:49.958Z,5
2017-07-18T05:49:50.304Z,5
2017-07-18T05:50:50.571Z,5
2017-07-18T05:51:50.328Z,5
2017-07-18T05:52:50.673Z,5
2017-07-18T05:53:49.761Z,5
2017-07-18T05:54:51.055Z,5
2017-07-18T05:55:51.087Z,5
2017-07-18T05:56:50.532Z,5
2017-07-18T05:57:50.833Z,5
2017-07-18T05:58:50.879Z,5
2017-07-18T05:59:51.212Z,5
2017-07-18T06:00:50.877Z,5
2017-07-18T06:01:51.251Z,5
2017-07-18T06:02:50.658Z,5
2017-07-18T06:03:51.015Z,5
2017-07-18T06:04:51.048Z,5
2017-07-18T06:05:51.329Z,5
2017-07-18T06:06:51.103Z,5
2017-07-18T06:07:50.500Z,5
2017-07-18T06:08:50.842Z,5
2017-07-18T06:09:51.183Z,5
2017-07-18T06:10:51.162Z,5
2017-07-18T06:11:50.936Z,5
2017-07-18T06:12:51.284Z,5
2017-07-18T06:13:51.296Z,5
2017-07-18T06:14:51.027Z,5
2017-07-18T06:15:51.639Z,5
2017-07-18T06:16:51.092Z,5
2017-07-18T06:17:50.800Z,5
2017-07-18T06:18:51.769Z,5
2017-07-18T06:19:51.463Z,5
2017-07-18T06:20:51.452Z,5
2017-07-18T06:21:51.221Z,5
2017-07-18T06:22:51.254Z,5
2017-07-18T06:23:50.978Z,5
2017-07-18T06:24:51.307Z,5
2017-07-18T06:25:51.583Z,5
2017-07-18T06:26:51.067Z,5
2017-07-18T06:27:51.701Z,5
2017-07-18T06:28:51.435Z,5
2017-07-18T06:29:52.066Z,5
2017-07-18T06:30:51.744Z,5
2017-07-18T06:31:51.197Z,5
2017-07-18T06:32:51.543Z,5
2017-07-18T06:33:51.578Z,5
2017-07-18T06:34:51.595Z,5
2017-07-18T06:35:51.628Z,5
2017-07-18T06:36:51.665Z,5
2017-07-18T06:37:52.306Z,5
2017-07-18T06:38:51.721Z,5
2017-07-18T06:39:51.739Z,5
2017-07-18T06:40:52.032Z,5
2017-07-18T06:41:52.437Z,5
2017-07-18T06:42:51.838Z,5
2017-07-18T06:43:52.515Z,5
2017-07-18T06:44:51.919Z,10
2017-07-18T06:45:52.791Z,10
2017-07-18T06:46:52.581Z,10
2017-07-18T06:47:51.982Z,10
2017-07-18T06:48:52.014Z,10
2017-07-18T06:49:52.035Z,10
2017-07-18T06:50:52.641Z,10
2017-07-18T06:51:52.089Z,10
2017-07-18T06:52:51.830Z,10
2017-07-18T06:53:52.467Z,10
2017-07-18T06:54:52.500Z,10
2017-07-18T06:55:52.517Z,10
2017-07-18T06:56:52.876Z,10
2017-07-18T06:57:52.268Z,10
2017-07-18T06:58:52.643Z,5
2017-07-18T06:59:52.666Z,10
2017-07-18T07:00:52.924Z,10
2017-07-18T07:01:52.405Z,10
2017-07-18T07:02:52.118Z,10
2017-07-18T07:03:51.843Z,10
2017-07-18T07:04:52.493Z,10
2017-07-18T07:05:52.450Z,10
2017-07-18T07:06:52.533Z,10
2017-07-18T07:07:52.873Z,10
2017-07-18T07:08:52.598Z,10
2017-07-18T07:09:52.624Z,10
2017-07-18T07:10:52.913Z,10
2017-07-18T07:11:52.985Z,10
2017-07-18T07:12:52.722Z,10
2017-07-18T07:13:53.058Z,10
2017-07-18T07:14:52.461Z,10
2017-07-18T07:15:53.728Z,10
2017-07-18T07:16:52.851Z,10
2017-07-18T07:17:52.566Z,10
2017-07-18T07:18:53.225Z,10
2017-07-18T07:19:52.601Z,10
2017-07-18T07:20:53.532Z,10
2017-07-18T07:21:52.989Z,10
2017-07-18T07:22:53.334Z,10
2017-07-18T07:23:53.369Z,10
2017-07-18T07:24:53.391Z,10
2017-07-18T07:25:53.351Z,10
2017-07-18T07:26:52.818Z,10
2017-07-18T07:27:53.786Z,10
2017-07-18T07:28:53.523Z,10
2017-07-18T07:29:53.516Z,10
2017-07-18T07:30:53.873Z,10
2017-07-18T07:31:53.579Z,10
2017-07-18T07:32:53.313Z,10
2017-07-18T07:33:53.328Z,10
2017-07-18T07:34:53.677Z,10
2017-07-18T07:35:54.266Z,10
2017-07-18T07:36:53.122Z,10
2017-07-18T07:37:54.067Z,10
2017-07-18T07:38:53.816Z,10
2017-07-18T07:39:53.207Z,10
2017-07-18T07:40:54.112Z,10
2017-07-18T07:41:53.567Z,10
2017-07-18T07:42:53.621Z,10
2017-07-18T07:43:53.311Z,10
2017-07-18T07:44:53.675Z,10
2017-07-18T07:45:53.942Z,10
2017-07-18T07:46:53.720Z,10
2017-07-18T07:47:54.050Z,10
2017-07-18T07:48:53.149Z,10
2017-07-18T07:49:53.812Z,10
2017-07-18T07:50:54.092Z,10
2017-07-18T07:51:54.483Z,10
2017-07-18T07:52:53.899Z,10
2017-07-18T07:53:54.235Z,10
2017-07-18T07:54:53.327Z,10
2017-07-18T07:55:53.916Z,10
2017-07-18T07:56:54.314Z,10
2017-07-18T07:57:54.354Z,10
2017-07-18T07:58:53.457Z,10
2017-07-18T07:59:54.726Z,10
2017-07-18T08:00:54.747Z,10
2017-07-18T08:01:54.459Z,10
2017-07-18T08:02:54.495Z,10
2017-07-18T08:03:54.547Z,10
2017-07-18T08:04:54.869Z,10
2017-07-18T08:05:54.215Z,10
2017-07-18T08:06:54.318Z,10
2017-07-18T08:07:54.330Z,10
2017-07-18T08:08:54.060Z,10
2017-07-18T08:09:55.028Z,10
2017-07-18T08:10:54.117Z,10
2017-07-18T08:11:54.710Z,10
2017-07-18T08:12:54.178Z,10
2017-07-18T08:13:54.824Z,10
2017-07-18T08:14:54.545Z,10
2017-07-18T08:15:54.583Z,10
2017-07-18T08:16:55.187Z,10
2017-07-18T08:17:54.954Z,10
2017-07-18T08:18:55.287Z,10
2017-07-18T08:19:54.684Z,10
2017-07-18T08:20:54.720Z,10
2017-07-18T08:21:55.012Z,10
2017-07-18T08:22:54.779Z,10
2017-07-18T08:23:54.492Z,10
2017-07-18T08:24:55.155Z,10
2017-07-18T08:25:54.866Z,10
2017-07-18T08:26:55.773Z,10
2017-07-18T08:27:55.241Z,10
2017-07-18T08:28:55.277Z,10
2017-07-18T08:29:54.985Z,10
2017-07-18T08:30:54.702Z,10
2017-07-18T08:31:55.623Z,10
2017-07-18T08:32:55.707Z,10
2017-07-18T08:33:55.410Z,10
2017-07-18T08:34:55.133Z,10
2017-07-18T08:35:55.156Z,10
2017-07-18T08:36:55.780Z,10
2017-07-18T08:37:55.232Z,10
2017-07-18T08:38:55.559Z,10
2017-07-18T08:39:54.985Z,10
2017-07-18T08:40:55.948Z,10
2017-07-18T08:41:55.590Z,15
2017-07-18T08:42:55.375Z,15
2017-07-18T08:43:55.717Z,15
2017-07-18T08:44:55.754Z,15
2017-07-18T08:45:55.775Z,15
2017-07-18T08:46:55.797Z,15
2017-07-18T08:47:55.842Z,15
2017-07-18T08:48:55.875Z,15
2017-07-18T08:49:55.281Z,15
2017-07-18T08:50:56.233Z,15
2017-07-18T08:51:55.897Z,15
2017-07-18T08:52:56.006Z,15
2017-07-18T08:53:55.704Z,15
2017-07-18T08:54:56.054Z,15
2017-07-18T08:55:56.086Z,15
2017-07-18T08:56:56.714Z,15
2017-07-18T08:57:55.828Z,15
2017-07-18T08:58:55.849Z,15
2017-07-18T08:59:55.888Z,15
2017-07-18T09:00:55.902Z,15
2017-07-18T09:01:56.187Z,15
2017-07-18T09:02:56.283Z,15
2017-07-18T09:03:56.004Z,15
2017-07-18T09:04:56.333Z,15
2017-07-18T09:05:56.068Z,15
2017-07-18T09:06:56.651Z,15
2017-07-18T09:07:56.427Z,15
2017-07-18T09:08:56.768Z,15
2017-07-18T09:09:56.178Z,15
2017-07-18T09:10:56.206Z,15
2017-07-18T09:11:56.183Z,15
2017-07-18T09:12:56.612Z,15
2017-07-18T09:13:56.605Z,15
2017-07-18T09:14:56.625Z,15
2017-07-18T09:15:56.368Z,15
2017-07-18T09:16:56.656Z,15
2017-07-18T09:17:56.100Z,15
2017-07-18T09:18:56.758Z,15
2017-07-18T09:19:56.165Z,15
2017-07-18T09:20:56.194Z,15
2017-07-18T09:21:56.506Z,15
2017-07-18T09:22:56.564Z,15
2017-07-18T09:23:56.897Z,15
2017-07-18T09:24:56.926Z,15
2017-07-18T09:25:56.029Z,15
2017-07-18T09:26:56.653Z,15
2017-07-18T09:27:57.025Z,15
2017-07-18T09:28:56.433Z,15
2017-07-18T09:29:56.477Z,15
2017-07-18T09:30:56.494Z,15
2017-07-18T09:31:56.823Z,15
2017-07-18T09:32:57.180Z,15
2017-07-18T09:33:56.897Z,15
2017-07-18T09:34:57.549Z,15
2017-07-18T09:35:57.582Z,20
2017-07-18T09:36:57.867Z,20
2017-07-18T09:37:57.645Z,20
2017-07-18T09:38:57.353Z,20
2017-07-18T09:39:57.386Z,20
2017-07-18T09:40:57.403Z,20
2017-07-18T09:41:58.020Z,20
2017-07-18T09:42:56.852Z,20
2017-07-18T09:43:56.573Z,20
2017-07-18T09:44:56.914Z,20
2017-07-18T09:45:57.260Z,20
2017-07-18T09:46:57.541Z,20
2017-07-18T09:47:57.322Z,20
2017-07-18T09:48:57.353Z,20
2017-07-18T09:49:57.058Z,20
2017-07-18T09:50:57.082Z,20
2017-07-18T09:51:57.060Z,20
2017-07-18T09:52:57.782Z,20
2017-07-18T09:53:56.906Z,20
2017-07-18T09:54:57.246Z,20
2017-07-18T09:55:57.867Z,20
2017-07-18T09:56:57.867Z,20
2017-07-18T09:57:57.613Z,20
2017-07-18T09:58:58.266Z,20
2017-07-18T09:59:57.971Z,20
2017-07-18T10:00:57.699Z,20
2017-07-18T10:01:58.299Z,20
2017-07-18T10:02:57.135Z,20
2017-07-18T10:03:58.112Z,20
2017-07-18T10:04:57.825Z,20
2017-07-18T10:05:58.175Z,20
2017-07-18T10:06:58.825Z,20
2017-07-18T10:07:58.225Z,20
2017-07-18T10:08:58.260Z,20
2017-07-18T10:09:58.278Z,20
2017-07-18T10:10:58.051Z,20
2017-07-18T10:11:58.604Z,20
2017-07-18T10:12:58.375Z,20
2017-07-18T10:13:58.407Z,20
2017-07-18T10:14:58.142Z,20
2017-07-18T10:15:58.152Z,20
2017-07-18T10:16:58.760Z,20
2017-07-18T10:17:58.513Z,20
2017-07-18T10:18:58.866Z,20
2017-07-18T10:19:58.612Z,20
2017-07-18T10:20:58.303Z,20
2017-07-18T10:21:58.321Z,20
2017-07-18T10:22:58.049Z,20
2017-07-18T10:23:58.401Z,25
2017-07-18T10:24:58.432Z,25
2017-07-18T10:25:58.463Z,25
2017-07-18T10:26:58.730Z,25
2017-07-18T10:27:57.895Z,25
2017-07-18T10:28:58.245Z,25
2017-07-18T10:29:58.576Z,25
2017-07-18T10:30:58.937Z,25
2017-07-18T10:31:59.197Z,25
2017-07-18T10:32:58.363Z,25
2017-07-18T10:33:59.359Z,25
2017-07-18T10:34:59.038Z,25
2017-07-18T10:35:59.060Z,25
2017-07-18T10:36:58.724Z,25
2017-07-18T10:37:59.445Z,25
2017-07-18T10:38:59.474Z,25
2017-07-18T10:39:58.880Z,25
2017-07-18T10:40:58.895Z,25
2017-07-18T10:41:59.503Z,25
2017-07-18T10:42:59.274Z,25
2017-07-18T10:43:58.994Z,25
2017-07-18T10:44:58.408Z,25
2017-07-18T10:45:58.766Z,25
2017-07-18T10:46:58.721Z,25
2017-07-18T10:47:59.117Z,25
2017-07-18T10:48:59.769Z,25
2017-07-18T10:49:59.484Z,25
2017-07-18T10:50:58.917Z,25
2017-07-18T10:52:00.109Z,25
2017-07-18T10:52:59.578Z,25
2017-07-18T10:54:00.130Z,25
2017-07-18T10:54:59.639Z,25
2017-07-18T10:55:59.053Z,30
2017-07-18T10:56:59.953Z,30
2017-07-18T10:58:00.042Z,30
2017-07-18T10:58:59.450Z,30
2017-07-18T10:59:59.482Z,30
2017-07-18T11:00:59.828Z,30
2017-07-18T11:01:59.797Z,30
2017-07-18T11:02:59.890Z,30
2017-07-18T11:04:00.231Z,30
2017-07-18T11:04:59.639Z,30
2017-07-18T11:05:59.353Z,30
2017-07-18T11:06:59.957Z,30
2017-07-18T11:07:59.726Z,30
2017-07-18T11:09:00.383Z,30
2017-07-18T11:09:59.780Z,30
2017-07-18T11:10:59.828Z,35
2017-07-18T11:12:00.103Z,40
2017-07-18T11:13:00.197Z,40
2017-07-18T11:13:59.907Z,40
2017-07-18T11:15:00.250Z,40
2017-07-18T11:15:59.980Z,40
2017-07-18T11:17:00.249Z,40
2017-07-18T11:18:00.366Z,40
2017-07-18T11:18:59.744Z,45
2017-07-18T11:20:00.097Z,60
2017-07-18T11:20:59.497Z,70
2017-07-18T11:22:01.032Z,75
2017-07-18T11:23:00.826Z,80
2017-07-18T11:23:59.910Z,80
2017-07-18T11:25:00.240Z,90
2017-07-18T11:26:00.631Z,90
2017-07-18T11:27:00.881Z,90
2017-07-18T11:28:01.018Z,95
2017-07-18T11:29:00.676Z,90
2017-07-18T11:30:01.023Z,100
2017-07-18T11:31:00.448Z,100
2017-07-18T11:32:01.373Z,105
2017-07-18T11:33:00.487Z,110
2017-07-18T11:34:00.210Z,110
2017-07-18T11:35:00.856Z,115
2017-07-18T11:36:01.208Z,120
2017-07-18T11:37:00.921Z,130
2017-07-18T11:38:01.511Z,165
2017-07-18T11:39:01.294Z,265
2017-07-18T11:40:01.029Z,285
2017-07-18T11:41:01.045Z,275
2017-07-18T11:42:01.081Z,275
2017-07-18T11:43:01.360Z,325
2017-07-18T11:44:01.130Z,445
2017-07-18T11:45:01.168Z,480
2017-07-18T11:46:01.509Z,385
2017-07-18T11:47:01.551Z,325
2017-07-18T11:48:01.202Z,30
2017-07-18T11:49:01.616Z,25
2017-07-18T11:50:01.320Z,20
2017-07-18T11:51:01.351Z,20
2017-07-18T11:52:01.374Z,25
2017-07-18T11:53:01.972Z,30
2017-07-18T11:54:01.760Z,30
2017-07-18T11:55:01.473Z,35
2017-07-18T11:56:01.201Z,265
2017-07-18T11:57:01.544Z,220
2017-07-18T11:58:02.144Z,310
2017-07-18T11:59:01.911Z,285
2017-07-18T12:00:01.633Z,240
2017-07-18T12:01:01.054Z,235
2017-07-18T12:02:01.386Z,65
2017-07-18T12:03:02.048Z,45
2017-07-18T12:04:02.077Z,110
2017-07-18T12:05:01.491Z,215
2017-07-18T12:06:01.544Z,45
2017-07-18T12:07:01.858Z,75
2017-07-18T12:08:02.151Z,65
2017-07-18T12:09:02.233Z,75
2017-07-18T12:10:01.962Z,60
2017-07-18T12:11:01.049Z,130
2017-07-18T12:12:02.036Z,80
2017-07-18T12:13:02.039Z,125
2017-07-18T12:14:02.092Z,230
2017-07-18T12:15:02.117Z,270
2017-07-18T12:16:02.469Z,140
2017-07-18T12:17:01.862Z,90
2017-07-18T12:18:02.455Z,60
2017-07-18T12:19:02.557Z,65
2017-07-18T12:20:01.960Z,90
2017-07-18T12:21:02.310Z,75
2017-07-18T12:22:02.345Z,65
2017-07-18T12:23:02.636Z,60
2017-07-18T12:24:02.395Z,100
2017-07-18T12:25:02.109Z,170
2017-07-18T12:26:01.846Z,200
2017-07-18T12:27:02.499Z,200
2017-07-18T12:28:03.096Z,190
2017-07-18T12:29:02.566Z,160
2017-07-18T12:30:02.589Z,145
2017-07-18T12:31:02.932Z,90
2017-07-18T12:32:02.346Z,145
2017-07-18T12:33:02.952Z,125
2017-07-18T12:34:02.716Z,125
2017-07-18T12:35:03.080Z,135
2017-07-18T12:36:02.482Z,125
2017-07-18T12:37:02.819Z,180
2017-07-18T12:38:03.157Z,130
2017-07-18T12:39:02.885Z,160
2017-07-18T12:40:03.233Z,160
2017-07-18T12:41:02.949Z,145
2017-07-18T12:42:02.684Z,145
2017-07-18T12:43:03.313Z,120
2017-07-18T12:44:03.061Z,110
2017-07-18T12:45:03.088Z,110
2017-07-18T12:46:03.139Z,105
2017-07-18T12:47:03.152Z,105
2017-07-18T12:48:03.181Z,130
2017-07-18T12:49:03.517Z,140
2017-07-18T12:50:03.263Z,130
2017-07-18T12:51:03.287Z,130
2017-07-18T12:52:03.324Z,120
2017-07-18T12:53:03.912Z,70
2017-07-18T12:54:03.693Z,70
2017-07-18T12:55:03.095Z,205
2017-07-18T12:56:02.823Z,170
2017-07-18T12:57:03.157Z,280
2017-07-18T12:58:04.133Z,160
2017-07-18T12:59:03.624Z,125
2017-07-18T13:00:03.266Z,115
2017-07-18T13:01:03.295Z,170
2017-07-18T13:02:03.664Z,190
2017-07-18T13:03:03.971Z,140
2017-07-18T13:04:03.708Z,115
2017-07-18T13:05:03.461Z,100
2017-07-18T13:06:03.797Z,110
2017-07-18T13:07:03.486Z,255
2017-07-18T13:08:04.457Z,375
2017-07-18T13:09:04.178Z,460
2017-07-18T13:10:03.941Z,130
2017-07-18T13:11:03.652Z,110
2017-07-18T13:12:03.973Z,100
2017-07-18T13:13:04.305Z,130
2017-07-18T13:14:04.335Z,170
2017-07-18T13:15:03.786Z,180
2017-07-18T13:16:04.090Z,155
2017-07-18T13:17:04.431Z,220
2017-07-18T13:18:04.100Z,280
2017-07-18T13:19:04.506Z,380
2017-07-18T13:20:04.222Z,210
2017-07-18T13:21:03.951Z,185
2017-07-18T13:22:04.296Z,160
2017-07-18T13:23:04.893Z,155
2017-07-18T13:24:04.683Z,130
2017-07-18T13:25:04.395Z,130
2017-07-18T13:26:04.427Z,140
2017-07-18T13:27:04.132Z,155
2017-07-18T13:28:04.722Z,175
2017-07-18T13:29:04.814Z,205
2017-07-18T13:30:04.891Z,415
2017-07-18T13:31:04.579Z,245
2017-07-18T13:32:04.620Z,380
2017-07-18T13:33:04.577Z,385
2017-07-18T13:34:04.366Z,255
2017-07-18T13:35:04.395Z,150
2017-07-18T13:36:04.435Z,150
2017-07-18T13:37:04.456Z,170
2017-07-18T13:38:04.177Z,470
2017-07-18T13:39:05.477Z,475
2017-07-18T13:40:05.182Z,455
2017-07-18T13:41:04.906Z,460
2017-07-18T13:42:04.357Z,200
2017-07-18T13:43:04.653Z,155
2017-07-18T13:44:05.294Z,190
2017-07-18T13:45:04.726Z,425
2017-07-18T13:46:04.752Z,555
2017-07-18T13:47:04.472Z,455
2017-07-18T13:48:04.813Z,480
2017-07-18T13:49:05.769Z,330
2017-07-18T13:50:05.187Z,280
2017-07-18T13:51:05.232Z,455
2017-07-18T13:52:05.263Z,435
2017-07-18T13:53:04.992Z,430
2017-07-18T13:54:05.573Z,460
2017-07-18T13:55:05.352Z,385
2017-07-18T13:56:05.387Z,225
2017-07-18T13:57:05.108Z,785
2017-07-18T13:58:04.837Z,695
2017-07-18T13:59:06.092Z,625
2017-07-18T14:00:05.202Z,1180
2017-07-18T14:01:05.546Z,1650
2017-07-18T14:02:04.653Z,1480
2017-07-18T14:03:05.841Z,1140
2017-07-18T14:04:05.681Z,1035
2017-07-18T14:05:05.986Z,835
2017-07-18T14:06:05.403Z,650
2017-07-18T14:07:06.064Z,685
2017-07-18T14:08:05.155Z,930
2017-07-18T14:09:06.109Z,765
2017-07-18T14:10:05.848Z,530
2017-07-18T14:11:05.252Z,375
2017-07-18T14:12:05.596Z,325
2017-07-18T14:13:06.251Z,320
2017-07-18T14:14:06.229Z,350
2017-07-18T14:15:06.012Z,235
2017-07-18T14:16:06.045Z,165
2017-07-18T14:17:06.090Z,300
2017-07-18T14:18:06.102Z,290
2017-07-18T14:19:06.390Z,220
2017-07-18T14:20:06.174Z,235
2017-07-18T14:21:05.578Z,250
2017-07-18T14:22:05.928Z,290
2017-07-18T14:23:05.969Z,375
2017-07-18T14:24:06.923Z,400
2017-07-18T14:25:06.032Z,460